sensor_id;sensor_type;location;lat;lon;timestamp;temperature;humidity
5392;DHT22;2719;53.624;9.786;2023-05-07T00:00:56;10.20;99.90
5392;DHT22;2719;53.624;9.786;2023-05-07T00:03:24;10.10;99.90
5392;DHT22;2719;53.624;9.786;2023-05-07T00:05:51;10.20;99.90
5392;DHT22;2719;53.624;9.786;2023-05-07T00:08:20;10.20;99.90
5392;DHT22;2719;53.624;9.786;2023-05-07T00:10:47;10.20;99.90
5392;DHT22;2719;53.624;9.786;2023-05-07T00:13:13;10.10;99.90
5392;DHT22;2719;53.624;9.786;2023-05-07T00:15:40;10.00;99.90
5392;DHT22;2719;53.624;9.786;2023-05-07T00:18:07;10.10;99.90
5392;DHT22;2719;53.624;9.786;2023-05-07T00:20:33;10.10;99.90
5392;DHT22;2719;53.624;9.786;2023-05-07T00:23:00;10.20;99.90
5392;DHT22;2719;53.624;9.786;2023-05-07T00:25:28;10.20;99.90
5392;DHT22;2719;53.624;9.786;2023-05-07T00:27:54;10.10;99.90
5392;DHT22;2719;53.624;9.786;2023-05-07T00:30:22;10.20;99.90
5392;DHT22;2719;53.624;9.786;2023-05-07T00:32:49;10.30;99.90
5392;DHT22;2719;53.624;9.786;2023-05-07T00:35:16;10.30;99.90
5392;DHT22;2719;53.624;9.786;2023-05-07T00:37:42;10.20;99.90
5392;DHT22;2719;53.624;9.786;2023-05-07T00:40:10;10.20;99.90
5392;DHT22;2719;53.624;9.786;2023-05-07T00:42:38;10.10;99.90
5392;DHT22;2719;53.624;9.786;2023-05-07T00:45:05;10.20;99.90
5392;DHT22;2719;53.624;9.786;2023-05-07T00:47:33;10.20;99.90
5392;DHT22;2719;53.624;9.786;2023-05-07T00:49:59;10.30;99.90
5392;DHT22;2719;53.624;9.786;2023-05-07T00:52:26;10.30;99.90
5392;DHT22;2719;53.624;9.786;2023-05-07T00:54:54;10.30;99.90
5392;DHT22;2719;53.624;9.786;2023-05-07T00:57:21;10.20;99.90
5392;DHT22;2719;53.624;9.786;2023-05-07T00:59:51;10.20;99.90
5392;DHT22;2719;53.624;9.786;2023-05-07T01:02:17;10.20;99.90
5392;DHT22;2719;53.624;9.786;2023-05-07T01:04:44;10.20;99.90
5392;DHT22;2719;53.624;9.786;2023-05-07T01:07:11;10.10;99.90
5392;DHT22;2719;53.624;9.786;2023-05-07T01:09:37;10.00;99.90
5392;DHT22;2719;53.624;9.786;2023-05-07T01:12:05;10.10;99.90
5392;DHT22;2719;53.624;9.786;2023-05-07T01:14:33;10.10;99.90
5392;DHT22;2719;53.624;9.786;2023-05-07T01:17:01;10.00;99.90
5392;DHT22;2719;53.624;9.786;2023-05-07T01:19:29;10.00;99.90
5392;DHT22;2719;53.624;9.786;2023-05-07T01:22:01;9.90;99.90
5392;DHT22;2719;53.624;9.786;2023-05-07T01:24:31;10.00;99.90
5392;DHT22;2719;53.624;9.786;2023-05-07T01:26:57;10.10;99.90
5392;DHT22;2719;53.624;9.786;2023-05-07T01:29:24;10.00;99.90
5392;DHT22;2719;53.624;9.786;2023-05-07T01:31:51;10.10;99.90
5392;DHT22;2719;53.624;9.786;2023-05-07T01:34:20;10.00;99.90
5392;DHT22;2719;53.624;9.786;2023-05-07T01:36:48;10.10;99.90
5392;DHT22;2719;53.624;9.786;2023-05-07T01:39:15;10.20;99.90
5392;DHT22;2719;53.624;9.786;2023-05-07T01:41:45;10.20;99.90
5392;DHT22;2719;53.624;9.786;2023-05-07T01:44:12;10.20;99.90
5392;DHT22;2719;53.624;9.786;2023-05-07T01:46:40;10.10;99.90
5392;DHT22;2719;53.624;9.786;2023-05-07T01:49:06;10.10;99.90
5392;DHT22;2719;53.624;9.786;2023-05-07T01:51:33;10.00;99.90
5392;DHT22;2719;53.624;9.786;2023-05-07T01:54:00;10.10;99.90
5392;DHT22;2719;53.624;9.786;2023-05-07T01:56:27;10.00;99.90
5392;DHT22;2719;53.624;9.786;2023-05-07T01:58:55;10.00;99.90
5392;DHT22;2719;53.624;9.786;2023-05-07T02:01:22;10.00;99.90
5392;DHT22;2719;53.624;9.786;2023-05-07T02:03:48;10.00;99.90
5392;DHT22;2719;53.624;9.786;2023-05-07T02:06:15;10.00;99.90
5392;DHT22;2719;53.624;9.786;2023-05-07T02:08:42;10.20;99.90
5392;DHT22;2719;53.624;9.786;2023-05-07T02:11:08;10.20;99.90
5392;DHT22;2719;53.624;9.786;2023-05-07T02:13:35;10.20;99.90
5392;DHT22;2719;53.624;9.786;2023-05-07T02:16:04;10.10;99.90
5392;DHT22;2719;53.624;9.786;2023-05-07T02:18:31;10.30;99.90
5392;DHT22;2719;53.624;9.786;2023-05-07T02:20:58;10.20;99.90
5392;DHT22;2719;53.624;9.786;2023-05-07T02:23:25;10.10;99.90
5392;DHT22;2719;53.624;9.786;2023-05-07T02:25:51;10.10;99.90
5392;DHT22;2719;53.624;9.786;2023-05-07T02:28:18;10.20;99.90
5392;DHT22;2719;53.624;9.786;2023-05-07T02:30:45;10.20;99.90
5392;DHT22;2719;53.624;9.786;2023-05-07T02:33:13;10.20;99.90
5392;DHT22;2719;53.624;9.786;2023-05-07T02:35:40;10.20;99.90
5392;DHT22;2719;53.624;9.786;2023-05-07T02:38:06;10.20;99.90
5392;DHT22;2719;53.624;9.786;2023-05-07T02:40:36;10.30;99.90
5392;DHT22;2719;53.624;9.786;2023-05-07T02:43:04;10.30;99.90
5392;DHT22;2719;53.624;9.786;2023-05-07T02:45:31;10.40;99.90
5392;DHT22;2719;53.624;9.786;2023-05-07T02:47:58;10.40;99.90
5392;DHT22;2719;53.624;9.786;2023-05-07T02:50:26;10.40;99.90
5392;DHT22;2719;53.624;9.786;2023-05-07T02:52:53;10.40;99.90
5392;DHT22;2719;53.624;9.786;2023-05-07T02:55:19;10.00;99.90
5392;DHT22;2719;53.624;9.786;2023-05-07T02:57:46;10.10;99.90
5392;DHT22;2719;53.624;9.786;2023-05-07T03:00:15;10.10;99.90
5392;DHT22;2719;53.624;9.786;2023-05-07T03:02:43;10.10;99.90
5392;DHT22;2719;53.624;9.786;2023-05-07T03:05:09;10.00;99.90
5392;DHT22;2719;53.624;9.786;2023-05-07T03:07:38;10.10;99.90
5392;DHT22;2719;53.624;9.786;2023-05-07T03:10:05;10.00;99.90
5392;DHT22;2719;53.624;9.786;2023-05-07T03:12:32;10.10;99.90
5392;DHT22;2719;53.624;9.786;2023-05-07T03:14:59;10.10;99.90
5392;DHT22;2719;53.624;9.786;2023-05-07T03:17:27;10.20;99.90
5392;DHT22;2719;53.624;9.786;2023-05-07T03:19:53;10.00;99.90
5392;DHT22;2719;53.624;9.786;2023-05-07T03:22:20;10.10;99.90
5392;DHT22;2719;53.624;9.786;2023-05-07T03:24:48;10.00;99.90
5392;DHT22;2719;53.624;9.786;2023-05-07T03:27:14;10.00;99.90
5392;DHT22;2719;53.624;9.786;2023-05-07T03:29:41;9.90;99.90
5392;DHT22;2719;53.624;9.786;2023-05-07T03:32:08;9.90;99.90
5392;DHT22;2719;53.624;9.786;2023-05-07T03:34:34;10.00;99.90
5392;DHT22;2719;53.624;9.786;2023-05-07T03:37:01;10.00;99.90
5392;DHT22;2719;53.624;9.786;2023-05-07T03:39:28;9.90;99.90
5392;DHT22;2719;53.624;9.786;2023-05-07T03:41:57;9.90;99.90
5392;DHT22;2719;53.624;9.786;2023-05-07T03:44:24;9.90;99.90
5392;DHT22;2719;53.624;9.786;2023-05-07T03:46:50;10.00;99.90
5392;DHT22;2719;53.624;9.786;2023-05-07T03:49:17;10.00;99.90
5392;DHT22;2719;53.624;9.786;2023-05-07T03:51:44;10.00;99.90
5392;DHT22;2719;53.624;9.786;2023-05-07T03:54:10;9.90;99.90
5392;DHT22;2719;53.624;9.786;2023-05-07T03:56:37;9.80;99.90
5392;DHT22;2719;53.624;9.786;2023-05-07T03:59:05;9.80;99.90
5392;DHT22;2719;53.624;9.786;2023-05-07T04:01:31;9.80;99.90
5392;DHT22;2719;53.624;9.786;2023-05-07T04:03:58;9.70;99.90
5392;DHT22;2719;53.624;9.786;2023-05-07T04:06:25;9.70;99.90
5392;DHT22;2719;53.624;9.786;2023-05-07T04:08:51;9.70;99.90
5392;DHT22;2719;53.624;9.786;2023-05-07T04:11:18;9.80;99.90
5392;DHT22;2719;53.624;9.786;2023-05-07T04:13:45;9.80;99.90
5392;DHT22;2719;53.624;9.786;2023-05-07T04:16:14;9.80;99.90
5392;DHT22;2719;53.624;9.786;2023-05-07T04:18:41;9.70;99.90
5392;DHT22;2719;53.624;9.786;2023-05-07T04:21:14;9.80;99.90
5392;DHT22;2719;53.624;9.786;2023-05-07T04:23:41;9.80;99.90
5392;DHT22;2719;53.624;9.786;2023-05-07T04:26:07;9.90;99.90
5392;DHT22;2719;53.624;9.786;2023-05-07T04:28:34;10.00;99.90
5392;DHT22;2719;53.624;9.786;2023-05-07T04:31:01;10.00;99.90
5392;DHT22;2719;53.624;9.786;2023-05-07T04:33:29;9.80;99.90
5392;DHT22;2719;53.624;9.786;2023-05-07T04:35:55;9.90;99.90
5392;DHT22;2719;53.624;9.786;2023-05-07T04:38:22;9.90;99.90
5392;DHT22;2719;53.624;9.786;2023-05-07T04:40:49;9.90;99.90
5392;DHT22;2719;53.624;9.786;2023-05-07T04:43:16;9.90;99.90
5392;DHT22;2719;53.624;9.786;2023-05-07T04:45:43;9.90;99.90
5392;DHT22;2719;53.624;9.786;2023-05-07T04:48:10;9.90;99.90
5392;DHT22;2719;53.624;9.786;2023-05-07T04:50:38;9.90;99.90
5392;DHT22;2719;53.624;9.786;2023-05-07T04:53:05;9.90;99.90
5392;DHT22;2719;53.624;9.786;2023-05-07T04:55:31;10.00;99.90
5392;DHT22;2719;53.624;9.786;2023-05-07T04:57:58;10.00;99.90
5392;DHT22;2719;53.624;9.786;2023-05-07T05:00:26;10.10;99.90
5392;DHT22;2719;53.624;9.786;2023-05-07T05:02:53;10.20;99.90
5392;DHT22;2719;53.624;9.786;2023-05-07T05:05:20;10.20;99.90
5392;DHT22;2719;53.624;9.786;2023-05-07T05:07:48;10.30;99.90
5392;DHT22;2719;53.624;9.786;2023-05-07T05:10:14;10.10;99.90
5392;DHT22;2719;53.624;9.786;2023-05-07T05:12:41;10.20;99.90
5392;DHT22;2719;53.624;9.786;2023-05-07T05:15:11;10.10;99.90
5392;DHT22;2719;53.624;9.786;2023-05-07T05:17:38;10.10;99.90
5392;DHT22;2719;53.624;9.786;2023-05-07T05:20:05;10.10;99.90
5392;DHT22;2719;53.624;9.786;2023-05-07T05:22:32;10.20;99.90
5392;DHT22;2719;53.624;9.786;2023-05-07T05:25:00;10.20;99.90
5392;DHT22;2719;53.624;9.786;2023-05-07T05:27:28;10.20;99.90
5392;DHT22;2719;53.624;9.786;2023-05-07T05:29:55;10.20;99.90
5392;DHT22;2719;53.624;9.786;2023-05-07T05:32:22;10.30;99.90
5392;DHT22;2719;53.624;9.786;2023-05-07T05:34:49;10.30;99.90
5392;DHT22;2719;53.624;9.786;2023-05-07T05:37:16;10.20;99.90
5392;DHT22;2719;53.624;9.786;2023-05-07T05:39:43;10.20;99.90
5392;DHT22;2719;53.624;9.786;2023-05-07T05:42:11;10.20;99.90
5392;DHT22;2719;53.624;9.786;2023-05-07T05:44:38;10.20;99.90
5392;DHT22;2719;53.624;9.786;2023-05-07T05:47:05;10.20;99.90
5392;DHT22;2719;53.624;9.786;2023-05-07T05:49:31;10.20;99.90
5392;DHT22;2719;53.624;9.786;2023-05-07T05:51:58;10.20;99.90
5392;DHT22;2719;53.624;9.786;2023-05-07T05:54:25;10.20;99.90
5392;DHT22;2719;53.624;9.786;2023-05-07T05:56:51;10.20;99.90
5392;DHT22;2719;53.624;9.786;2023-05-07T05:59:19;10.10;99.90
5392;DHT22;2719;53.624;9.786;2023-05-07T06:01:46;10.20;99.90
5392;DHT22;2719;53.624;9.786;2023-05-07T06:04:13;10.30;99.90
5392;DHT22;2719;53.624;9.786;2023-05-07T06:06:39;10.30;99.90
5392;DHT22;2719;53.624;9.786;2023-05-07T06:09:06;10.30;99.90
5392;DHT22;2719;53.624;9.786;2023-05-07T06:11:33;10.30;99.90
5392;DHT22;2719;53.624;9.786;2023-05-07T06:13:59;10.30;99.90
5392;DHT22;2719;53.624;9.786;2023-05-07T06:16:28;10.30;99.90
5392;DHT22;2719;53.624;9.786;2023-05-07T06:18:54;10.30;99.90
5392;DHT22;2719;53.624;9.786;2023-05-07T06:21:21;10.20;99.90
5392;DHT22;2719;53.624;9.786;2023-05-07T06:23:48;10.20;99.90
5392;DHT22;2719;53.624;9.786;2023-05-07T06:26:15;10.30;99.90
5392;DHT22;2719;53.624;9.786;2023-05-07T06:28:42;10.20;99.90
5392;DHT22;2719;53.624;9.786;2023-05-07T06:31:13;10.30;99.90
5392;DHT22;2719;53.624;9.786;2023-05-07T06:33:41;10.40;99.90
5392;DHT22;2719;53.624;9.786;2023-05-07T06:36:08;10.40;99.90
5392;DHT22;2719;53.624;9.786;2023-05-07T06:38:34;10.50;99.90
5392;DHT22;2719;53.624;9.786;2023-05-07T06:41:01;10.40;99.90
5392;DHT22;2719;53.624;9.786;2023-05-07T06:43:28;10.50;99.90
5392;DHT22;2719;53.624;9.786;2023-05-07T06:45:54;10.40;99.90
5392;DHT22;2719;53.624;9.786;2023-05-07T06:48:21;10.40;99.90
5392;DHT22;2719;53.624;9.786;2023-05-07T06:50:49;10.40;99.90
5392;DHT22;2719;53.624;9.786;2023-05-07T06:53:16;10.40;99.90
5392;DHT22;2719;53.624;9.786;2023-05-07T06:55:42;10.40;99.90
5392;DHT22;2719;53.624;9.786;2023-05-07T06:58:09;10.30;99.90
5392;DHT22;2719;53.624;9.786;2023-05-07T07:00:36;10.40;99.90
5392;DHT22;2719;53.624;9.786;2023-05-07T07:03:03;10.40;99.90
5392;DHT22;2719;53.624;9.786;2023-05-07T07:05:29;10.40;99.90
5392;DHT22;2719;53.624;9.786;2023-05-07T07:07:57;10.40;99.90
5392;DHT22;2719;53.624;9.786;2023-05-07T07:10:24;10.50;99.90
5392;DHT22;2719;53.624;9.786;2023-05-07T07:12:51;10.50;99.90
5392;DHT22;2719;53.624;9.786;2023-05-07T07:15:19;10.60;99.90
5392;DHT22;2719;53.624;9.786;2023-05-07T07:17:48;10.70;99.90
5392;DHT22;2719;53.624;9.786;2023-05-07T07:20:14;10.80;99.90
5392;DHT22;2719;53.624;9.786;2023-05-07T07:22:41;10.80;99.90
5392;DHT22;2719;53.624;9.786;2023-05-07T07:25:10;10.60;99.90
5392;DHT22;2719;53.624;9.786;2023-05-07T07:27:37;10.60;99.90
5392;DHT22;2719;53.624;9.786;2023-05-07T07:30:06;10.60;99.90
5392;DHT22;2719;53.624;9.786;2023-05-07T07:32:34;10.70;99.90
5392;DHT22;2719;53.624;9.786;2023-05-07T07:35:00;10.80;99.90
5392;DHT22;2719;53.624;9.786;2023-05-07T07:37:27;10.80;99.90
5392;DHT22;2719;53.624;9.786;2023-05-07T07:39:55;10.70;99.90
5392;DHT22;2719;53.624;9.786;2023-05-07T07:42:23;10.60;99.90
5392;DHT22;2719;53.624;9.786;2023-05-07T07:44:50;10.60;99.90
5392;DHT22;2719;53.624;9.786;2023-05-07T07:47:16;10.70;99.90
5392;DHT22;2719;53.624;9.786;2023-05-07T07:49:43;10.80;99.90
5392;DHT22;2719;53.624;9.786;2023-05-07T07:52:10;10.80;99.90
5392;DHT22;2719;53.624;9.786;2023-05-07T07:54:37;10.90;99.90
5392;DHT22;2719;53.624;9.786;2023-05-07T07:57:03;10.90;99.90
5392;DHT22;2719;53.624;9.786;2023-05-07T07:59:31;10.80;99.90
5392;DHT22;2719;53.624;9.786;2023-05-07T08:01:58;10.90;99.90
5392;DHT22;2719;53.624;9.786;2023-05-07T08:04:24;11.00;99.90
5392;DHT22;2719;53.624;9.786;2023-05-07T08:06:51;11.00;99.90
5392;DHT22;2719;53.624;9.786;2023-05-07T08:09:19;11.00;99.90
5392;DHT22;2719;53.624;9.786;2023-05-07T08:11:46;11.10;99.90
5392;DHT22;2719;53.624;9.786;2023-05-07T08:14:13;11.00;99.90
5392;DHT22;2719;53.624;9.786;2023-05-07T08:16:42;11.00;99.90
5392;DHT22;2719;53.624;9.786;2023-05-07T08:19:09;11.10;99.90
5392;DHT22;2719;53.624;9.786;2023-05-07T08:21:39;11.10;99.90
5392;DHT22;2719;53.624;9.786;2023-05-07T08:24:06;11.10;99.90
5392;DHT22;2719;53.624;9.786;2023-05-07T08:26:32;11.20;99.90
5392;DHT22;2719;53.624;9.786;2023-05-07T08:29:01;11.20;99.90
5392;DHT22;2719;53.624;9.786;2023-05-07T08:31:28;11.20;99.90
5392;DHT22;2719;53.624;9.786;2023-05-07T08:33:56;11.20;99.90
5392;DHT22;2719;53.624;9.786;2023-05-07T08:36:23;11.20;99.90
5392;DHT22;2719;53.624;9.786;2023-05-07T08:38:50;11.10;99.90
5392;DHT22;2719;53.624;9.786;2023-05-07T08:41:16;11.10;99.90
5392;DHT22;2719;53.624;9.786;2023-05-07T08:43:45;11.20;99.90
5392;DHT22;2719;53.624;9.786;2023-05-07T08:46:16;11.00;99.90
5392;DHT22;2719;53.624;9.786;2023-05-07T08:48:44;11.10;99.90
5392;DHT22;2719;53.624;9.786;2023-05-07T08:51:13;11.20;99.90
5392;DHT22;2719;53.624;9.786;2023-05-07T08:53:41;11.20;99.90
5392;DHT22;2719;53.624;9.786;2023-05-07T08:56:08;11.20;99.90
5392;DHT22;2719;53.624;9.786;2023-05-07T08:58:35;11.30;99.90
5392;DHT22;2719;53.624;9.786;2023-05-07T09:01:05;11.20;99.90
5392;DHT22;2719;53.624;9.786;2023-05-07T09:03:33;11.30;99.90
5392;DHT22;2719;53.624;9.786;2023-05-07T09:06:00;11.40;99.90
5392;DHT22;2719;53.624;9.786;2023-05-07T09:08:28;11.40;99.90
5392;DHT22;2719;53.624;9.786;2023-05-07T09:10:54;11.60;99.90
5392;DHT22;2719;53.624;9.786;2023-05-07T09:13:21;11.70;99.90
5392;DHT22;2719;53.624;9.786;2023-05-07T09:15:48;11.80;99.90
5392;DHT22;2719;53.624;9.786;2023-05-07T09:18:15;11.70;99.90
5392;DHT22;2719;53.624;9.786;2023-05-07T09:20:41;11.70;99.90
5392;DHT22;2719;53.624;9.786;2023-05-07T09:23:08;11.80;99.90
5392;DHT22;2719;53.624;9.786;2023-05-07T09:25:37;11.80;99.90
5392;DHT22;2719;53.624;9.786;2023-05-07T09:28:04;11.90;99.90
5392;DHT22;2719;53.624;9.786;2023-05-07T09:30:33;11.80;99.90
5392;DHT22;2719;53.624;9.786;2023-05-07T09:33:01;11.90;99.90
5392;DHT22;2719;53.624;9.786;2023-05-07T09:35:29;11.80;99.90
5392;DHT22;2719;53.624;9.786;2023-05-07T09:37:57;11.90;99.90
5392;DHT22;2719;53.624;9.786;2023-05-07T09:40:25;11.90;99.90
5392;DHT22;2719;53.624;9.786;2023-05-07T09:42:53;11.80;99.90
5392;DHT22;2719;53.624;9.786;2023-05-07T09:45:24;11.80;99.90
5392;DHT22;2719;53.624;9.786;2023-05-07T09:47:54;11.70;99.90
5392;DHT22;2719;53.624;9.786;2023-05-07T09:50:24;11.80;99.90
5392;DHT22;2719;53.624;9.786;2023-05-07T09:52:52;11.90;99.90
5392;DHT22;2719;53.624;9.786;2023-05-07T09:55:20;11.90;99.90
5392;DHT22;2719;53.624;9.786;2023-05-07T09:57:50;11.90;99.90
5392;DHT22;2719;53.624;9.786;2023-05-07T10:00:19;11.90;99.90
5392;DHT22;2719;53.624;9.786;2023-05-07T10:02:48;11.90;99.90
5392;DHT22;2719;53.624;9.786;2023-05-07T10:05:17;11.90;99.90
5392;DHT22;2719;53.624;9.786;2023-05-07T10:07:45;12.00;99.90
5392;DHT22;2719;53.624;9.786;2023-05-07T10:10:12;12.00;99.90
5392;DHT22;2719;53.624;9.786;2023-05-07T10:12:40;11.90;99.90
5392;DHT22;2719;53.624;9.786;2023-05-07T10:15:08;11.90;99.90
5392;DHT22;2719;53.624;9.786;2023-05-07T10:17:38;12.00;99.90
5392;DHT22;2719;53.624;9.786;2023-05-07T10:20:06;12.10;99.90
5392;DHT22;2719;53.624;9.786;2023-05-07T10:22:38;12.00;99.90
5392;DHT22;2719;53.624;9.786;2023-05-07T10:25:07;12.00;99.90
5392;DHT22;2719;53.624;9.786;2023-05-07T10:27:36;12.10;99.90
5392;DHT22;2719;53.624;9.786;2023-05-07T10:30:12;12.20;99.90
5392;DHT22;2719;53.624;9.786;2023-05-07T10:32:47;12.10;99.90
5392;DHT22;2719;53.624;9.786;2023-05-07T10:35:19;12.30;99.90
5392;DHT22;2719;53.624;9.786;2023-05-07T10:37:47;12.20;99.90
5392;DHT22;2719;53.624;9.786;2023-05-07T10:40:14;12.30;99.90
5392;DHT22;2719;53.624;9.786;2023-05-07T10:42:53;12.20;99.90
5392;DHT22;2719;53.624;9.786;2023-05-07T10:45:22;12.10;99.90
5392;DHT22;2719;53.624;9.786;2023-05-07T10:48:09;12.10;99.90
5392;DHT22;2719;53.624;9.786;2023-05-07T10:50:37;12.20;99.90
5392;DHT22;2719;53.624;9.786;2023-05-07T10:53:23;12.20;99.90
5392;DHT22;2719;53.624;9.786;2023-05-07T10:58:33;12.30;99.90
5392;DHT22;2719;53.624;9.786;2023-05-07T11:01:02;12.20;99.90
5392;DHT22;2719;53.624;9.786;2023-05-07T11:03:31;12.30;99.90
5392;DHT22;2719;53.624;9.786;2023-05-07T11:06:11;12.40;99.90
5392;DHT22;2719;53.624;9.786;2023-05-07T11:08:54;12.30;99.90
5392;DHT22;2719;53.624;9.786;2023-05-07T11:11:44;12.40;99.90
5392;DHT22;2719;53.624;9.786;2023-05-07T11:14:11;12.50;99.90
5392;DHT22;2719;53.624;9.786;2023-05-07T11:16:38;12.50;99.90
5392;DHT22;2719;53.624;9.786;2023-05-07T11:19:08;12.50;99.90
5392;DHT22;2719;53.624;9.786;2023-05-07T11:21:36;12.50;99.90
5392;DHT22;2719;53.624;9.786;2023-05-07T11:24:03;12.70;99.90
5392;DHT22;2719;53.624;9.786;2023-05-07T11:26:41;12.80;99.90
5392;DHT22;2719;53.624;9.786;2023-05-07T11:29:11;12.90;99.90
5392;DHT22;2719;53.624;9.786;2023-05-07T11:31:38;12.80;99.90
5392;DHT22;2719;53.624;9.786;2023-05-07T11:34:05;13.00;99.90
5392;DHT22;2719;53.624;9.786;2023-05-07T11:36:34;13.00;99.90
5392;DHT22;2719;53.624;9.786;2023-05-07T11:39:02;13.10;99.90
5392;DHT22;2719;53.624;9.786;2023-05-07T11:41:35;13.10;99.90
5392;DHT22;2719;53.624;9.786;2023-05-07T11:44:03;13.20;99.90
5392;DHT22;2719;53.624;9.786;2023-05-07T11:46:30;13.30;99.90
5392;DHT22;2719;53.624;9.786;2023-05-07T11:48:57;13.40;99.90
5392;DHT22;2719;53.624;9.786;2023-05-07T11:51:24;13.30;99.90
5392;DHT22;2719;53.624;9.786;2023-05-07T11:53:53;13.50;99.90
5392;DHT22;2719;53.624;9.786;2023-05-07T11:56:20;13.50;99.90
5392;DHT22;2719;53.624;9.786;2023-05-07T11:58:48;13.50;99.90
5392;DHT22;2719;53.624;9.786;2023-05-07T12:01:16;13.40;99.90
5392;DHT22;2719;53.624;9.786;2023-05-07T12:03:44;13.50;99.90
5392;DHT22;2719;53.624;9.786;2023-05-07T12:06:11;13.60;99.90
5392;DHT22;2719;53.624;9.786;2023-05-07T12:08:39;13.70;99.90
5392;DHT22;2719;53.624;9.786;2023-05-07T12:11:13;13.70;99.90
5392;DHT22;2719;53.624;9.786;2023-05-07T12:13:42;13.80;99.90
5392;DHT22;2719;53.624;9.786;2023-05-07T12:16:09;13.90;99.90
5392;DHT22;2719;53.624;9.786;2023-05-07T12:18:36;13.80;99.90
5392;DHT22;2719;53.624;9.786;2023-05-07T12:21:04;13.80;99.90
5392;DHT22;2719;53.624;9.786;2023-05-07T12:23:31;13.90;99.90
5392;DHT22;2719;53.624;9.786;2023-05-07T12:25:59;13.80;99.90
5392;DHT22;2719;53.624;9.786;2023-05-07T12:28:27;14.00;99.90
5392;DHT22;2719;53.624;9.786;2023-05-07T12:30:56;14.00;99.90
5392;DHT22;2719;53.624;9.786;2023-05-07T12:33:24;14.00;99.90
5392;DHT22;2719;53.624;9.786;2023-05-07T12:35:54;14.00;99.90
5392;DHT22;2719;53.624;9.786;2023-05-07T12:38:21;14.00;99.90
5392;DHT22;2719;53.624;9.786;2023-05-07T12:40:49;14.00;99.90
5392;DHT22;2719;53.624;9.786;2023-05-07T12:43:17;14.10;99.90
5392;DHT22;2719;53.624;9.786;2023-05-07T12:45:47;13.90;99.90
5392;DHT22;2719;53.624;9.786;2023-05-07T12:48:13;14.00;99.90
5392;DHT22;2719;53.624;9.786;2023-05-07T12:50:40;14.00;99.90
5392;DHT22;2719;53.624;9.786;2023-05-07T12:53:07;14.00;99.90
5392;DHT22;2719;53.624;9.786;2023-05-07T12:55:41;14.10;99.90
5392;DHT22;2719;53.624;9.786;2023-05-07T12:58:14;13.90;99.90
5392;DHT22;2719;53.624;9.786;2023-05-07T13:00:41;14.00;99.90
5392;DHT22;2719;53.624;9.786;2023-05-07T13:03:10;14.20;99.90
5392;DHT22;2719;53.624;9.786;2023-05-07T13:05:37;14.20;99.90
5392;DHT22;2719;53.624;9.786;2023-05-07T13:08:04;14.40;99.90
5392;DHT22;2719;53.624;9.786;2023-05-07T13:10:31;14.30;99.90
5392;DHT22;2719;53.624;9.786;2023-05-07T13:12:58;14.30;99.90
5392;DHT22;2719;53.624;9.786;2023-05-07T13:15:25;14.40;99.90
5392;DHT22;2719;53.624;9.786;2023-05-07T13:17:52;14.40;99.90
5392;DHT22;2719;53.624;9.786;2023-05-07T13:20:20;14.50;99.90
5392;DHT22;2719;53.624;9.786;2023-05-07T13:22:47;14.70;99.90
5392;DHT22;2719;53.624;9.786;2023-05-07T13:25:14;14.60;99.90
5392;DHT22;2719;53.624;9.786;2023-05-07T13:27:41;14.70;99.90
5392;DHT22;2719;53.624;9.786;2023-05-07T13:30:07;14.90;99.90
5392;DHT22;2719;53.624;9.786;2023-05-07T13:32:34;14.90;99.90
5392;DHT22;2719;53.624;9.786;2023-05-07T13:35:01;15.10;99.90
5392;DHT22;2719;53.624;9.786;2023-05-07T13:37:29;15.00;99.90
5392;DHT22;2719;53.624;9.786;2023-05-07T13:39:56;15.10;99.90
5392;DHT22;2719;53.624;9.786;2023-05-07T13:42:22;14.90;99.90
5392;DHT22;2719;53.624;9.786;2023-05-07T13:44:49;15.10;99.90
5392;DHT22;2719;53.624;9.786;2023-05-07T13:47:16;15.20;99.90
5392;DHT22;2719;53.624;9.786;2023-05-07T13:49:43;15.20;99.90
5392;DHT22;2719;53.624;9.786;2023-05-07T13:52:09;15.30;99.90
5392;DHT22;2719;53.624;9.786;2023-05-07T13:54:38;15.30;99.90
5392;DHT22;2719;53.624;9.786;2023-05-07T13:57:05;15.50;99.90
5392;DHT22;2719;53.624;9.786;2023-05-07T13:59:31;15.60;99.90
5392;DHT22;2719;53.624;9.786;2023-05-07T14:01:58;15.70;99.90
5392;DHT22;2719;53.624;9.786;2023-05-07T14:04:25;15.60;99.90
5392;DHT22;2719;53.624;9.786;2023-05-07T14:06:51;15.80;99.90
5392;DHT22;2719;53.624;9.786;2023-05-07T14:09:18;15.90;99.90
5392;DHT22;2719;53.624;9.786;2023-05-07T14:11:46;16.00;99.90
5392;DHT22;2719;53.624;9.786;2023-05-07T14:14:16;15.90;99.90
5392;DHT22;2719;53.624;9.786;2023-05-07T14:16:43;16.10;99.90
5392;DHT22;2719;53.624;9.786;2023-05-07T14:19:10;16.30;99.90
5392;DHT22;2719;53.624;9.786;2023-05-07T14:21:36;16.40;99.90
5392;DHT22;2719;53.624;9.786;2023-05-07T14:24:03;16.40;99.90
5392;DHT22;2719;53.624;9.786;2023-05-07T14:26:30;16.20;99.90
5392;DHT22;2719;53.624;9.786;2023-05-07T14:28:58;16.40;99.90
5392;DHT22;2719;53.624;9.786;2023-05-07T14:31:25;16.30;99.90
5392;DHT22;2719;53.624;9.786;2023-05-07T14:33:51;16.30;99.90
5392;DHT22;2719;53.624;9.786;2023-05-07T14:36:19;16.30;99.90
5392;DHT22;2719;53.624;9.786;2023-05-07T14:38:48;16.20;99.90
5392;DHT22;2719;53.624;9.786;2023-05-07T14:41:15;16.30;99.90
5392;DHT22;2719;53.624;9.786;2023-05-07T14:43:42;16.20;99.90
5392;DHT22;2719;53.624;9.786;2023-05-07T14:46:10;16.30;99.90
5392;DHT22;2719;53.624;9.786;2023-05-07T14:48:37;16.10;99.90
5392;DHT22;2719;53.624;9.786;2023-05-07T14:51:03;16.20;99.90
5392;DHT22;2719;53.624;9.786;2023-05-07T14:53:30;16.20;99.90
5392;DHT22;2719;53.624;9.786;2023-05-07T14:55:57;16.40;99.90
5392;DHT22;2719;53.624;9.786;2023-05-07T14:58:24;16.20;99.90
5392;DHT22;2719;53.624;9.786;2023-05-07T15:00:50;16.30;99.90
5392;DHT22;2719;53.624;9.786;2023-05-07T15:03:18;16.20;99.90
5392;DHT22;2719;53.624;9.786;2023-05-07T15:05:45;16.30;99.90
5392;DHT22;2719;53.624;9.786;2023-05-07T15:08:12;16.20;99.90
5392;DHT22;2719;53.624;9.786;2023-05-07T15:10:38;16.20;99.90
5392;DHT22;2719;53.624;9.786;2023-05-07T15:13:07;16.10;99.90
5392;DHT22;2719;53.624;9.786;2023-05-07T15:15:33;16.10;99.90
5392;DHT22;2719;53.624;9.786;2023-05-07T15:18:00;16.00;99.90
5392;DHT22;2719;53.624;9.786;2023-05-07T15:20:29;16.10;99.90
5392;DHT22;2719;53.624;9.786;2023-05-07T15:22:55;16.10;99.90
5392;DHT22;2719;53.624;9.786;2023-05-07T15:25:22;16.00;99.90
5392;DHT22;2719;53.624;9.786;2023-05-07T15:27:49;16.00;99.90
5392;DHT22;2719;53.624;9.786;2023-05-07T15:30:16;16.00;99.90
5392;DHT22;2719;53.624;9.786;2023-05-07T15:32:45;16.00;99.90
5392;DHT22;2719;53.624;9.786;2023-05-07T15:35:12;16.00;99.90
5392;DHT22;2719;53.624;9.786;2023-05-07T15:37:40;16.00;99.90
5392;DHT22;2719;53.624;9.786;2023-05-07T15:40:08;16.10;99.90
5392;DHT22;2719;53.624;9.786;2023-05-07T15:42:35;16.10;99.90
5392;DHT22;2719;53.624;9.786;2023-05-07T15:45:02;16.10;99.90
5392;DHT22;2719;53.624;9.786;2023-05-07T15:47:32;16.00;99.90
5392;DHT22;2719;53.624;9.786;2023-05-07T15:50:00;16.00;99.90
5392;DHT22;2719;53.624;9.786;2023-05-07T15:52:26;16.00;99.90
5392;DHT22;2719;53.624;9.786;2023-05-07T15:54:55;16.00;99.90
5392;DHT22;2719;53.624;9.786;2023-05-07T15:57:21;16.00;99.90
5392;DHT22;2719;53.624;9.786;2023-05-07T15:59:48;15.90;99.90
5392;DHT22;2719;53.624;9.786;2023-05-07T16:02:15;15.90;99.90
5392;DHT22;2719;53.624;9.786;2023-05-07T16:04:41;16.00;99.90
5392;DHT22;2719;53.624;9.786;2023-05-07T16:07:08;15.90;99.90